createdAt,value
2022-12-31T00:00:04.787Z,100156.34
2022-12-31T00:02:31.866Z,100161.09
2022-12-31T00:04:58.350Z,100147.19
2022-12-31T00:07:24.843Z,100156.94
2022-12-31T00:09:51.234Z,100144.28
2022-12-31T00:12:17.623Z,100152.16
2022-12-31T00:14:44.072Z,100151.50
2022-12-31T00:17:10.587Z,100154.81
2022-12-31T00:19:37.153Z,100150.03
2022-12-31T00:22:03.626Z,100162.69
2022-12-31T00:24:31.026Z,100168.69
2022-12-31T00:26:57.600Z,100169.13
2022-12-31T00:29:24.102Z,100190.47
2022-12-31T00:31:50.504Z,100183.28
2022-12-31T00:34:16.968Z,100185.97
2022-12-31T00:36:45.803Z,100176.84
2022-12-31T00:39:12.282Z,100186.38
2022-12-31T00:41:39.028Z,100187.00
2022-12-31T00:44:05.580Z,100185.34
2022-12-31T00:46:32.146Z,100184.09
2022-12-31T00:48:58.653Z,100175.38
2022-12-31T00:51:27.372Z,100175.19
2022-12-31T00:53:55.611Z,100168.56
2022-12-31T00:56:24.392Z,100177.06
2022-12-31T00:58:51.305Z,100170.84
2022-12-31T01:01:38.442Z,100166.91
2022-12-31T01:04:10.703Z,100172.28
2022-12-31T01:06:37.607Z,100172.28
2022-12-31T01:09:05.366Z,100169.41
2022-12-31T01:11:31.997Z,100175.59
2022-12-31T01:14:08.975Z,100188.03
2022-12-31T01:16:41.329Z,100180.34
2022-12-31T01:19:10.878Z,100180.16
2022-12-31T01:21:39.849Z,100179.94
2022-12-31T01:24:07.076Z,100175.75
2022-12-31T01:26:33.472Z,100176.19
2022-12-31T01:28:59.934Z,100179.50
2022-12-31T01:31:27.068Z,100175.75
2022-12-31T01:33:54.041Z,100167.69
2022-12-31T01:36:26.185Z,100171.81
2022-12-31T01:38:54.757Z,100175.53
2022-12-31T01:41:30.147Z,100175.34
2022-12-31T01:44:21.347Z,100177.22
2022-12-31T01:46:51.782Z,100177.41
2022-12-31T01:49:45.175Z,100180.31
2022-12-31T01:52:50.173Z,100166.84
2022-12-31T01:55:23.678Z,100172.44
2022-12-31T01:57:55.579Z,100175.75
2022-12-31T02:00:22.026Z,100177.63
2022-12-31T02:02:48.860Z,100174.31
2022-12-31T02:05:25.995Z,100167.06
2022-12-31T02:07:54.079Z,100166.84
2022-12-31T02:10:20.771Z,100157.72
2022-12-31T02:12:48.425Z,100168.28
2022-12-31T02:15:15.040Z,100166.03
2022-12-31T02:17:41.452Z,100165.22
2022-12-31T02:20:26.660Z,100174.94
2022-12-31T02:23:10.737Z,100185.72
2022-12-31T02:25:40.085Z,100183.22
2022-12-31T02:28:25.290Z,100174.31
2022-12-31T02:31:01.092Z,100176.59
2022-12-31T02:33:32.637Z,100180.16
2022-12-31T02:36:04.761Z,100175.19
2022-12-31T02:38:35.631Z,100185.53
2022-12-31T02:41:02.049Z,100178.94
2022-12-31T02:43:28.488Z,100178.69
2022-12-31T02:46:15.717Z,100173.53
2022-12-31T02:49:10.635Z,100173.50
2022-12-31T02:52:03.695Z,100166.84
2022-12-31T02:54:41.002Z,100173.50
2022-12-31T02:57:21.422Z,100178.06
2022-12-31T03:00:15.855Z,100182.19
2022-12-31T03:02:45.845Z,100184.66
2022-12-31T03:05:15.425Z,100170.19
2022-12-31T03:07:43.807Z,100186.97
2022-12-31T03:10:10.893Z,100194.44
2022-12-31T03:12:46.855Z,100197.72
2022-12-31T03:15:20.992Z,100205.41
2022-12-31T03:17:53.618Z,100204.00
2022-12-31T03:20:40.349Z,100206.28
2022-12-31T03:23:10.240Z,100203.59
2022-12-31T03:25:38.946Z,100197.56
2022-12-31T03:28:08.513Z,100203.38
2022-12-31T03:30:36.620Z,100203.19
2022-12-31T03:33:05.134Z,100208.59
2022-12-31T03:35:34.464Z,100194.94
2022-12-31T03:38:01.142Z,100204.44
2022-12-31T03:40:29.787Z,100204.03
2022-12-31T03:42:56.487Z,100203.25
2022-12-31T03:45:23.803Z,100205.09
2022-12-31T03:47:50.217Z,100202.38
2022-12-31T03:50:18.582Z,100191.19
2022-12-31T03:52:45.501Z,100193.31
2022-12-31T03:55:12.028Z,100173.41
2022-12-31T03:57:39.041Z,100160.59
2022-12-31T04:00:08.577Z,100163.91
2022-12-31T04:02:35.215Z,100154.56
2022-12-31T04:05:01.879Z,100164.09
2022-12-31T04:07:29.407Z,100156.25
2022-12-31T04:09:55.874Z,100167.63
2022-12-31T04:12:22.285Z,100164.31
2022-12-31T04:14:48.718Z,100166.59
2022-12-31T04:17:15.178Z,100166.38
2022-12-31T04:19:41.703Z,100169.72
2022-12-31T04:22:08.293Z,100156.66
2022-12-31T04:24:34.716Z,100157.06
2022-12-31T04:27:07.245Z,100161.66
2022-12-31T04:29:35.284Z,100168.31
2022-12-31T04:32:01.871Z,100166.22
2022-12-31T04:34:28.393Z,100174.69
2022-12-31T04:36:54.787Z,100187.97
2022-12-31T04:39:21.168Z,100195.00
2022-12-31T04:41:47.748Z,100190.06
2022-12-31T04:44:14.222Z,100183.84
2022-12-31T04:46:40.902Z,100184.28
2022-12-31T04:49:07.694Z,100191.94
2022-12-31T04:51:34.432Z,100195.03
2022-12-31T04:54:01.200Z,100187.78
2022-12-31T04:56:28.690Z,100199.78
2022-12-31T04:58:55.453Z,100191.53
2022-12-31T05:01:22.617Z,100189.03
2022-12-31T05:03:49.422Z,100189.25
2022-12-31T05:06:18.338Z,100189.84
2022-12-31T05:08:44.988Z,100184.88
2022-12-31T05:11:11.787Z,100192.94
2022-12-31T05:13:38.971Z,100186.31
2022-12-31T05:16:06.289Z,100186.09
2022-12-31T05:18:33.929Z,100182.41
2022-12-31T05:21:00.620Z,100185.91
2022-12-31T05:23:27.402Z,100191.31
2022-12-31T05:25:54.504Z,100195.22
2022-12-31T05:28:21.463Z,100193.16
2022-12-31T05:30:49.979Z,100191.53
2022-12-31T05:33:18.011Z,100191.31
2022-12-31T05:35:45.631Z,100195.22
2022-12-31T05:38:12.090Z,100195.88
2022-12-31T05:40:38.460Z,100190.06
2022-12-31T05:43:04.946Z,100194.63
2022-12-31T05:45:31.613Z,100195.00
2022-12-31T05:47:58.339Z,100192.31
2022-12-31T05:50:25.139Z,100190.84
2022-12-31T05:52:56.156Z,100181.31
2022-12-31T05:55:23.053Z,100185.47
2022-12-31T05:57:49.554Z,100187.34
2022-12-31T06:00:16.302Z,100187.56
2022-12-31T06:02:43.090Z,100186.09
2022-12-31T06:05:09.724Z,100182.59
2022-12-31T06:07:36.231Z,100177.63
2022-12-31T06:10:04.952Z,100175.75
2022-12-31T06:12:31.389Z,100178.25
2022-12-31T06:14:57.786Z,100174.94
2022-12-31T06:17:24.182Z,100183.00
2022-12-31T06:19:50.595Z,100190.84
2022-12-31T06:22:17.067Z,100188.38
2022-12-31T06:24:43.465Z,100188.97
2022-12-31T06:27:09.926Z,100192.72
2022-12-31T06:29:36.472Z,100196.22
2022-12-31T06:32:03.181Z,100190.84
2022-12-31T06:34:29.530Z,100198.09
2022-12-31T06:36:55.960Z,100192.31
2022-12-31T06:39:22.449Z,100202.03
2022-12-31T06:41:48.886Z,100194.16
2022-12-31T06:44:15.385Z,100192.91
2022-12-31T06:46:42.717Z,100186.06
2022-12-31T06:49:09.192Z,100192.06
2022-12-31T06:51:35.586Z,100194.53
2022-12-31T06:54:02.051Z,100184.59
2022-12-31T06:56:33.945Z,100192.66
2022-12-31T06:59:01.599Z,100192.84
2022-12-31T07:01:52.192Z,100189.31
2022-12-31T07:04:48.168Z,100187.03
2022-12-31T07:07:38.308Z,100188.91
2022-12-31T07:10:42.055Z,100199.84
2022-12-31T07:13:23.815Z,100187.38
2022-12-31T07:16:24.652Z,100193.16
2022-12-31T07:19:03.019Z,100193.38
2022-12-31T07:21:39.322Z,100187.53
2022-12-31T07:24:10.076Z,100181.91
2022-12-31T07:27:07.145Z,100183.50
2022-12-31T07:29:46.188Z,100191.56
2022-12-31T07:32:37.672Z,100199.59
2022-12-31T07:35:16.174Z,100202.91
2022-12-31T07:37:57.124Z,100201.44
2022-12-31T07:40:53.683Z,100202.50
2022-12-31T07:43:34.376Z,100209.94
2022-12-31T07:46:24.636Z,100203.88
2022-12-31T07:48:51.395Z,100212.38
2022-12-31T07:51:18.110Z,100209.66
2022-12-31T07:53:44.554Z,100226.44
2022-12-31T07:56:11.072Z,100219.41
2022-12-31T07:58:40.575Z,100210.66
2022-12-31T08:01:11.336Z,100228.09
2022-12-31T08:03:47.968Z,100221.44
2022-12-31T08:06:46.278Z,100226.00
2022-12-31T08:09:45.741Z,100224.72
2022-12-31T08:12:12.302Z,100225.78
2022-12-31T08:14:47.305Z,100225.13
2022-12-31T08:17:16.306Z,100234.66
2022-12-31T08:19:44.033Z,100236.31
2022-12-31T08:22:39.450Z,100243.34
2022-12-31T08:25:27.614Z,100248.75
2022-12-31T08:28:00.121Z,100259.09
2022-12-31T08:30:57.845Z,100249.88
2022-12-31T08:33:37.065Z,100262.50
2022-12-31T08:36:47.658Z,100226.41
2022-12-31T08:39:51.137Z,100264.38
2022-12-31T08:42:41.088Z,100261.00
2022-12-31T08:45:19.354Z,100231.16
2022-12-31T08:48:00.237Z,100255.06
2022-12-31T08:50:27.494Z,100265.66
2022-12-31T08:52:54.318Z,100261.28
2022-12-31T08:55:21.869Z,100262.13
2022-12-31T08:58:18.906Z,100266.47
2022-12-31T09:00:48.967Z,100290.94
2022-12-31T09:03:18.105Z,100292.38
2022-12-31T09:05:53.093Z,100300.44
2022-12-31T09:08:44.238Z,100304.94
2022-12-31T09:11:22.875Z,100308.28
2022-12-31T09:14:40.892Z,100296.03
2022-12-31T09:17:19.188Z,100311.75
2022-12-31T09:19:45.724Z,100326.66
2022-12-31T09:22:12.305Z,100333.28
2022-12-31T09:24:39.075Z,100322.88
2022-12-31T09:27:20.058Z,100336.94
2022-12-31T09:29:58.102Z,100355.34
2022-12-31T09:32:51.906Z,100351.22
2022-12-31T09:35:33.395Z,100332.31
2022-12-31T09:38:12.814Z,100339.94
2022-12-31T09:40:44.860Z,100352.47
2022-12-31T09:43:48.426Z,100353.66
2022-12-31T09:47:11.239Z,100347.97
2022-12-31T09:49:49.989Z,100357.09
2022-12-31T09:52:32.928Z,100350.06
2022-12-31T09:55:23.997Z,100350.69
2022-12-31T09:58:05.356Z,100345.28
2022-12-31T10:00:52.120Z,100344.31
2022-12-31T10:03:57.748Z,100341.72
2022-12-31T10:06:43.836Z,100351.03
2022-12-31T10:09:37.385Z,100367.31
2022-12-31T10:12:22.311Z,100389.16
2022-12-31T10:15:24.971Z,100383.34
2022-12-31T10:18:11.599Z,100382.03
2022-12-31T10:20:47.336Z,100385.13
2022-12-31T10:23:47.917Z,100382.81
2022-12-31T10:26:22.446Z,100379.44
2022-12-31T10:29:26.445Z,100388.81
2022-12-31T10:32:14.412Z,100379.88
2022-12-31T10:35:12.185Z,100378.81
2022-12-31T10:38:04.919Z,100369.38
2022-12-31T10:40:49.490Z,100380.44
2022-12-31T10:44:03.940Z,100383.09
2022-12-31T10:47:13.773Z,100382.41
2022-12-31T10:49:58.930Z,100384.63
2022-12-31T10:52:59.518Z,100393.09
2022-12-31T10:55:42.541Z,100386.22
2022-12-31T10:58:15.024Z,100402.66
2022-12-31T11:01:06.075Z,100387.03
2022-12-31T11:03:35.343Z,100403.25
2022-12-31T11:06:38.894Z,100398.28
2022-12-31T11:09:53.449Z,100402.00
2022-12-31T11:12:53.303Z,100407.88
2022-12-31T11:15:22.715Z,100408.34
2022-12-31T11:17:58.171Z,100408.09
2022-12-31T11:20:39.601Z,100407.00
2022-12-31T11:23:26.814Z,100399.13
2022-12-31T11:26:29.449Z,100401.22
2022-12-31T11:29:07.846Z,100409.97
2022-12-31T11:31:52.952Z,100408.53
2022-12-31T11:34:37.380Z,100402.94
2022-12-31T11:37:12.819Z,100408.72
2022-12-31T11:40:19.214Z,100409.81
2022-12-31T11:42:57.250Z,100400.28
2022-12-31T11:45:52.310Z,100402.81
2022-12-31T11:48:50.351Z,100395.94
2022-12-31T11:51:35.867Z,100400.72
2022-12-31T11:54:29.837Z,100392.84
2022-12-31T11:57:38.804Z,100393.88
2022-12-31T12:00:24.681Z,100392.41
2022-12-31T12:02:59.191Z,100378.66
2022-12-31T12:05:26.956Z,100382.41
2022-12-31T12:07:54.305Z,100373.53
2022-12-31T12:10:29.299Z,100382.84
2022-12-31T12:13:00.236Z,100374.53
2022-12-31T12:15:33.171Z,100368.28
2022-12-31T12:18:06.510Z,100367.84
2022-12-31T12:20:36.546Z,100376.41
2022-12-31T12:23:14.656Z,100362.28
2022-12-31T12:25:43.673Z,100347.69
2022-12-31T12:28:23.891Z,100354.88
2022-12-31T12:30:59.223Z,100362.41
2022-12-31T12:33:27.139Z,100365.69
2022-12-31T12:35:53.771Z,100365.50
2022-12-31T12:38:23.045Z,100370.50
2022-12-31T12:40:58.014Z,100363.81
2022-12-31T12:43:30.359Z,100393.00
2022-12-31T12:46:04.001Z,100366.22
2022-12-31T12:48:39.130Z,100368.09
2022-12-31T12:51:30.818Z,100377.59
2022-12-31T12:54:42.308Z,100370.16
2022-12-31T12:57:24.176Z,100377.88
2022-12-31T13:00:17.444Z,100367.47
2022-12-31T13:02:55.690Z,100372.16
2022-12-31T13:05:32.548Z,100364.88
2022-12-31T13:08:26.347Z,100386.25
2022-12-31T13:11:28.336Z,100381.09
2022-12-31T13:14:00.810Z,100364.38
2022-12-31T13:16:54.628Z,100380.97
2022-12-31T13:19:58.528Z,100372.84
2022-12-31T13:22:40.224Z,100375.78
2022-12-31T13:25:22.780Z,100389.53
2022-12-31T13:27:52.535Z,100390.75
2022-12-31T13:30:40.184Z,100388.03
2022-12-31T13:33:27.755Z,100395.75
2022-12-31T13:35:57.612Z,100396.44
2022-12-31T13:38:29.429Z,100397.41
2022-12-31T13:41:09.024Z,100405.28
2022-12-31T13:43:58.395Z,100405.28
2022-12-31T13:46:47.485Z,100415.00
2022-12-31T13:49:25.411Z,100406.97
2022-12-31T13:52:30.416Z,100407.81
2022-12-31T13:55:34.397Z,100404.06
2022-12-31T13:58:22.923Z,100406.19
2022-12-31T14:00:57.051Z,100403.44
2022-12-31T14:03:29.508Z,100403.19
2022-12-31T14:06:07.788Z,100388.63
2022-12-31T14:08:34.265Z,100414.44
2022-12-31T14:11:18.443Z,100400.34
2022-12-31T14:13:54.414Z,100418.63
2022-12-31T14:16:46.229Z,100409.03
2022-12-31T14:19:39.384Z,100420.63
2022-12-31T14:22:25.233Z,100406.97
2022-12-31T14:24:52.294Z,100416.09
2022-12-31T14:27:42.075Z,100420.50
2022-12-31T14:30:23.099Z,100428.00
2022-12-31T14:33:18.335Z,100431.56
2022-12-31T14:36:23.204Z,100429.13
2022-12-31T14:39:09.857Z,100406.50
2022-12-31T14:42:17.619Z,100426.84
2022-12-31T14:44:59.574Z,100426.84
2022-12-31T14:47:51.136Z,100439.94
2022-12-31T14:50:22.013Z,100435.56
2022-12-31T14:52:58.684Z,100446.34
2022-12-31T14:55:25.122Z,100443.66
2022-12-31T14:58:26.581Z,100437.66
2022-12-31T15:00:39.961Z,100467.16
2022-12-31T15:03:23.769Z,100456.63
2022-12-31T15:05:54.070Z,100455.94
2022-12-31T15:08:49.147Z,100465.72
2022-12-31T15:11:43.563Z,100455.28
2022-12-31T15:14:19.002Z,100431.59
2022-12-31T15:16:58.182Z,100456.50
2022-12-31T15:19:43.335Z,100449.63
2022-12-31T15:22:44.919Z,100445.69
2022-12-31T15:25:40.516Z,100445.88
2022-12-31T15:28:24.457Z,100439.66
2022-12-31T15:30:52.867Z,100433.63
2022-12-31T15:33:34.284Z,100436.56
2022-12-31T15:36:18.754Z,100443.66
2022-12-31T15:38:45.491Z,100441.59
2022-12-31T15:41:36.396Z,100444.06
2022-12-31T15:44:30.311Z,100430.16
2022-12-31T15:47:09.950Z,100429.56
2022-12-31T15:49:40.291Z,100448.03
2022-12-31T15:52:13.731Z,100445.50
2022-12-31T15:54:44.189Z,100444.28
2022-12-31T15:57:20.769Z,100443.22
2022-12-31T15:59:47.600Z,100452.22
2022-12-31T16:02:22.028Z,100448.75
2022-12-31T16:04:49.181Z,100443.53
2022-12-31T16:07:17.225Z,100418.88
2022-12-31T16:09:49.431Z,100425.63
2022-12-31T16:12:21.170Z,100422.72
2022-12-31T16:14:53.007Z,100412.06
2022-12-31T16:17:32.718Z,100406.66
2022-12-31T16:20:00.812Z,100399.19
2022-12-31T16:22:35.443Z,100402.84
2022-12-31T16:25:29.647Z,100399.56
2022-12-31T16:27:50.441Z,100404.69
2022-12-31T16:30:22.691Z,100403.31
2022-12-31T16:32:50.816Z,100413.22
2022-12-31T16:35:23.656Z,100401.38
2022-12-31T16:38:16.897Z,100389.97
2022-12-31T16:41:03.195Z,100403.25
2022-12-31T16:43:37.284Z,100401.75
2022-12-31T16:46:26.522Z,100385.53
2022-12-31T16:48:56.951Z,100396.16
2022-12-31T16:51:28.633Z,100391.72
2022-12-31T16:53:55.337Z,100384.44
2022-12-31T16:56:31.408Z,100373.22
2022-12-31T16:59:03.695Z,100392.97
2022-12-31T17:01:33.874Z,100405.84
2022-12-31T17:04:06.290Z,100397.56
2022-12-31T17:06:33.656Z,100378.38
2022-12-31T17:09:15.477Z,100380.25
2022-12-31T17:11:53.905Z,100360.53
2022-12-31T17:14:23.363Z,100370.91
2022-12-31T17:17:02.573Z,100371.72
2022-12-31T17:19:50.945Z,100376.31
2022-12-31T17:22:40.221Z,100378.81
2022-12-31T17:25:08.707Z,100373.19
2022-12-31T17:27:36.655Z,100380.06
2022-12-31T17:30:35.069Z,100370.91
2022-12-31T17:33:03.397Z,100356.75
2022-12-31T17:35:41.977Z,100379.38
2022-12-31T17:38:23.497Z,100365.88
2022-12-31T17:41:07.888Z,100377.88
2022-12-31T17:43:36.569Z,100371.44
2022-12-31T17:46:10.646Z,100383.13
2022-12-31T17:48:37.249Z,100372.69
2022-12-31T17:51:03.784Z,100390.34
2022-12-31T17:53:30.194Z,100366.84
2022-12-31T17:56:00.523Z,100366.03
2022-12-31T17:58:47.184Z,100375.78
2022-12-31T18:01:18.087Z,100372.00
2022-12-31T18:03:45.149Z,100382.47
2022-12-31T18:06:16.669Z,100384.66
2022-12-31T18:08:43.663Z,100391.84
2022-12-31T18:11:22.593Z,100394.03
2022-12-31T18:13:49.381Z,100391.69
2022-12-31T18:16:16.392Z,100396.53
2022-12-31T18:18:43.706Z,100396.28
2022-12-31T18:21:26.922Z,100397.94
2022-12-31T18:26:22.371Z,100392.91
2022-12-31T18:28:49.605Z,100392.41
2022-12-31T18:31:19.691Z,100396.13
2022-12-31T18:33:49.709Z,100382.91
2022-12-31T18:36:18.024Z,100375.03
2022-12-31T18:38:44.891Z,100395.94
2022-12-31T18:41:18.146Z,100397.13
2022-12-31T18:43:45.157Z,100399.22
2022-12-31T18:46:17.437Z,100391.88
2022-12-31T18:48:44.289Z,100407.34
2022-12-31T18:51:19.333Z,100398.69
2022-12-31T18:53:45.949Z,100404.50
2022-12-31T18:56:18.801Z,100396.66
2022-12-31T18:58:45.937Z,100400.88
2022-12-31T19:01:27.011Z,100405.38
2022-12-31T19:03:55.627Z,100399.84
2022-12-31T19:06:22.446Z,100401.50
2022-12-31T19:08:48.844Z,100404.88
2022-12-31T19:11:15.638Z,100413.81
2022-12-31T19:13:42.067Z,100405.47
2022-12-31T19:16:10.324Z,100417.56
2022-12-31T19:18:37.244Z,100420.47
2022-12-31T19:21:04.560Z,100413.13
2022-12-31T19:23:31.120Z,100403.81
2022-12-31T19:25:57.546Z,100414.47
2022-12-31T19:28:25.975Z,100400.88
2022-12-31T19:30:52.939Z,100392.41
2022-12-31T19:33:19.511Z,100405.38
2022-12-31T19:35:46.185Z,100404.72
2022-12-31T19:38:22.102Z,100418.25
2022-12-31T19:40:50.212Z,100418.44
2022-12-31T19:43:18.884Z,100425.78
2022-12-31T19:45:45.753Z,100429.06
2022-12-31T19:48:14.750Z,100419.75
2022-12-31T19:50:48.902Z,100444.75
2022-12-31T19:53:18.977Z,100438.59
2022-12-31T19:55:45.502Z,100435.13
2022-12-31T19:58:18.486Z,100434.13
2022-12-31T20:00:51.569Z,100440.47
2022-12-31T20:03:21.323Z,100439.34
2022-12-31T20:05:47.828Z,100445.81
2022-12-31T20:08:16.513Z,100445.50
2022-12-31T20:10:43.857Z,100441.53
2022-12-31T20:13:10.337Z,100460.50
2022-12-31T20:15:40.375Z,100465.75
2022-12-31T20:18:06.791Z,100457.50
2022-12-31T20:20:33.260Z,100462.53
2022-12-31T20:22:59.754Z,100463.72
2022-12-31T20:25:26.198Z,100470.56
2022-12-31T20:27:54.657Z,100462.38
2022-12-31T20:30:22.989Z,100450.38
2022-12-31T20:32:52.015Z,100470.34
2022-12-31T20:35:19.543Z,100453.44
2022-12-31T20:37:46.081Z,100459.00
2022-12-31T20:40:14.095Z,100462.63
2022-12-31T20:42:41.080Z,100458.88
2022-12-31T20:45:09.938Z,100459.69
2022-12-31T20:47:36.956Z,100458.25
2022-12-31T20:50:12.802Z,100467.66
2022-12-31T20:52:39.505Z,100481.56
2022-12-31T20:55:06.497Z,100475.09
2022-12-31T20:57:34.029Z,100476.34
2022-12-31T21:00:01.107Z,100476.97
2022-12-31T21:02:40.930Z,100469.53
2022-12-31T21:05:09.505Z,100472.38
2022-12-31T21:07:36.194Z,100474.41
2022-12-31T21:10:02.651Z,100469.63
2022-12-31T21:12:44.324Z,100489.44
2022-12-31T21:15:12.439Z,100473.59
2022-12-31T21:17:38.824Z,100484.78
2022-12-31T21:20:05.776Z,100479.22
2022-12-31T21:22:33.663Z,100462.00
2022-12-31T21:25:02.011Z,100478.22
2022-12-31T21:27:29.603Z,100489.81
2022-12-31T21:32:43.299Z,100500.69
2022-12-31T21:38:03.429Z,100506.03
2022-12-31T21:40:30.789Z,100518.94
2022-12-31T21:42:57.707Z,100500.41
2022-12-31T21:45:24.473Z,100506.03
2022-12-31T21:48:09.368Z,100499.38
2022-12-31T21:50:36.005Z,100509.19
2022-12-31T21:53:02.420Z,100499.06
2022-12-31T21:55:47.307Z,100495.66
2022-12-31T21:58:25.793Z,100505.66
2022-12-31T22:01:12.186Z,100506.09
2022-12-31T22:03:38.819Z,100501.59
2022-12-31T22:06:14.502Z,100504.47
2022-12-31T22:08:43.066Z,100510.50
2022-12-31T22:11:10.837Z,100520.13
2022-12-31T22:13:37.854Z,100521.75
2022-12-31T22:16:05.924Z,100517.44
2022-12-31T22:18:35.620Z,100512.50
2022-12-31T22:21:19.244Z,100511.03
2022-12-31T22:23:48.724Z,100508.16
2022-12-31T22:26:17.460Z,100514.41
2022-12-31T22:28:45.822Z,100517.53
2022-12-31T22:31:18.323Z,100518.59
2022-12-31T22:33:45.642Z,100515.06
2022-12-31T22:36:14.891Z,100514.97
2022-12-31T22:38:41.565Z,100514.59
2022-12-31T22:41:09.569Z,100514.81
2022-12-31T22:43:39.267Z,100513.97
2022-12-31T22:46:13.683Z,100515.81
2022-12-31T22:48:41.555Z,100514.78
2022-12-31T22:51:09.329Z,100533.72
2022-12-31T22:53:35.868Z,100512.28
2022-12-31T22:56:02.839Z,100509.56
2022-12-31T22:58:29.254Z,100522.47
2022-12-31T23:00:55.629Z,100520.38
2022-12-31T23:03:22.225Z,100531.19
2022-12-31T23:05:52.848Z,100527.59
2022-12-31T23:08:23.686Z,100541.63
2022-12-31T23:11:02.687Z,100541.56
2022-12-31T23:13:51.334Z,100549.28
2022-12-31T23:16:37.870Z,100547.41
2022-12-31T23:19:23.911Z,100562.31
2022-12-31T23:22:09.367Z,100568.22
2022-12-31T23:24:35.854Z,100564.84
2022-12-31T23:27:02.407Z,100561.25
2022-12-31T23:29:28.779Z,100573.53
2022-12-31T23:31:55.227Z,100582.28
2022-12-31T23:34:21.874Z,100591.84
2022-12-31T23:36:48.297Z,100577.28
2022-12-31T23:39:14.687Z,100573.78
2022-12-31T23:41:41.394Z,100576.06
2022-12-31T23:44:07.786Z,100585.22
2022-12-31T23:46:34.301Z,100572.97
2022-12-31T23:49:00.758Z,100567.94
2022-12-31T23:51:27.196Z,100578.53
2022-12-31T23:53:53.624Z,100570.41
2022-12-31T23:56:23.710Z,100583.28
2022-12-31T23:58:58.173Z,100584.34
